Terminal Aerodrome Forecast
Issued by NWS

Home | Current Version | Previous Version | Text Only | Print | Product List | Glossary On
Versions: 1 2 3 4 5 6 7 8 9 10 11 12 13 14 15 16 17 18 19
000
FTUS41 KCAR 262337
TAFHUL
TAF
KHUL 262337Z 2700/2724 15006KT 4SM BR VCSH OVC003
     FM270300 15005KT 1SM -RA BR OVC003
     FM271200 15005KT 2SM BR VCSH OVC003
     FM271800 14006KT 2SM BR OVC007=

USA.gov is the U.S. government's official web portal to all federal, state and local government web resources and services.